Time;durP1;ratioP1;P1;durP2;ratioP2;P2;SDS_P1;SDS_P2;PMS_P1;PMS_P2;Temp;Humidity;BMP_temperature;BMP_pressure;BME280_temperature;BME280_humidity;BME280_pressure;Samples;Min_cycle;Max_cycle;Signal;HPM_P1;HPM_P2
2021/06/18 00:00:08;;;;;;;6.28;5.78;;;21.70;99.90;;;;;;5095518;28;20207;-63
2021/06/18 00:02:37;;;;;;;6.10;5.60;;;21.70;99.90;;;;;;5095153;28;20659;-64
2021/06/18 00:05:06;;;;;;;5.60;5.10;;;21.70;99.90;;;;;;5095508;28;20218;-63
2021/06/18 00:07:34;;;;;;;5.97;5.43;;;21.70;99.90;;;;;;5094909;28;20204;-63
2021/06/18 00:10:06;;;;;;;6.50;5.80;;;21.60;99.90;;;;;;5095404;28;20261;-63
2021/06/18 00:12:36;;;;;;;6.20;5.60;;;21.60;99.90;;;;;;5095122;28;20267;-64
2021/06/18 00:15:06;;;;;;;5.88;5.38;;;21.60;99.90;;;;;;5095311;28;20334;-63
2021/06/18 00:17:34;;;;;;;6.25;5.72;;;21.60;99.90;;;;;;5095213;28;20184;-64
2021/06/18 00:20:02;;;;;;;6.85;5.13;;;21.50;99.90;;;;;;5095314;28;20200;-63
2021/06/18 00:22:30;;;;;;;5.95;5.45;;;21.50;99.90;;;;;;5094683;28;20200;-63
2021/06/18 00:24:58;;;;;;;5.72;5.32;;;21.50;99.90;;;;;;5095101;28;20192;-62
2021/06/18 00:27:26;;;;;;;6.00;5.50;;;21.40;99.90;;;;;;5094655;28;20207;-64
2021/06/18 00:29:55;;;;;;;6.22;5.63;;;21.40;99.90;;;;;;5094766;28;20628;-63
2021/06/18 00:32:23;;;;;;;5.82;5.32;;;21.40;99.90;;;;;;5094633;28;20200;-64
2021/06/18 00:34:51;;;;;;;5.93;5.38;;;21.40;99.90;;;;;;5094545;28;20216;-64
2021/06/18 00:37:19;;;;;;;5.50;5.10;;;21.40;99.90;;;;;;5094775;28;20218;-64
2021/06/18 00:39:47;;;;;;;6.80;6.28;;;21.30;99.90;;;;;;5094292;28;20322;-65
2021/06/18 00:42:15;;;;;;;6.35;5.78;;;21.40;99.90;;;;;;5094541;28;20294;-65
2021/06/18 00:44:43;;;;;;;6.50;5.90;;;21.30;99.90;;;;;;5084049;28;20220;-64
2021/06/18 00:47:21;;;;;;;5.72;5.22;;;21.30;99.90;;;;;;5074332;28;20203;-64
2021/06/18 00:49:50;;;;;;;6.57;5.35;;;21.30;99.90;;;;;;5074076;28;20189;-64
2021/06/18 00:52:18;;;;;;;6.05;5.45;;;21.20;99.90;;;;;;5074324;28;20200;-64
2021/06/18 00:54:46;;;;;;;5.40;4.93;;;21.10;99.90;;;;;;5074089;28;20233;-63
2021/06/18 00:57:14;;;;;;;5.97;5.47;;;21.10;99.90;;;;;;5073941;28;20292;-63
2021/06/18 00:59:42;;;;;;;6.85;5.65;;;21.10;99.90;;;;;;5074086;28;20291;-63
2021/06/18 01:02:12;;;;;;;5.95;5.45;;;21.10;99.90;;;;;;5074038;28;20204;-64
2021/06/18 01:04:41;;;;;;;6.05;5.35;;;21.10;99.90;;;;;;5074090;28;20197;-64
2021/06/18 01:07:11;;;;;;;5.95;5.45;;;21.00;99.90;;;;;;5073666;28;20553;-65
2021/06/18 01:09:47;;;;;;;6.18;5.57;;;21.00;99.90;;;;;;5073852;28;20294;-65
2021/06/18 01:12:18;;;;;;;8.05;7.25;;;21.00;99.90;;;;;;5073907;28;20318;-63
2021/06/18 01:14:59;;;;;;;9.15;8.00;;;21.00;99.90;;;;;;5073931;28;20205;-63
2021/06/18 01:17:35;;;;;;;10.82;9.63;;;20.90;99.90;;;;;;5073620;28;20220;-63
2021/06/18 01:20:34;;;;;;;9.63;8.00;;;20.90;99.90;;;;;;5073503;28;20188;-64
2021/06/18 01:23:05;;;;;;;8.50;7.70;;;20.80;99.90;;;;;;5073509;28;20181;-64
2021/06/18 01:25:44;;;;;;;7.82;6.85;;;20.80;99.90;;;;;;5073595;28;20523;-63
2021/06/18 01:28:36;;;;;;;7.47;6.45;;;20.80;99.90;;;;;;5073435;28;20235;-62
2021/06/18 01:31:05;;;;;;;6.82;6.13;;;20.70;99.90;;;;;;5073575;28;20189;-63
2021/06/18 01:33:36;;;;;;;6.90;6.13;;;20.70;99.90;;;;;;5073047;28;20251;-63
2021/06/18 01:36:08;;;;;;;6.30;5.78;;;20.70;99.90;;;;;;5073364;28;20204;-63
2021/06/18 01:38:40;;;;;;;6.40;5.90;;;20.70;99.90;;;;;;5073033;28;20185;-63
2021/06/18 01:41:13;;;;;;;6.15;5.63;;;20.70;99.90;;;;;;5073429;28;20185;-65
2021/06/18 01:43:44;;;;;;;6.28;5.78;;;20.70;99.90;;;;;;5075134;28;20276;-63
2021/06/18 01:46:16;;;;;;;7.18;6.35;;;20.60;99.90;;;;;;5093112;28;20180;-63
2021/06/18 01:48:49;;;;;;;7.25;6.55;;;20.60;99.90;;;;;;5093388;28;20186;-63
2021/06/18 01:51:19;;;;;;;7.55;5.97;;;20.60;99.90;;;;;;5093199;28;20184;-64
2021/06/18 01:53:50;;;;;;;6.68;6.18;;;20.60;99.90;;;;;;5092981;28;20705;-63
2021/06/18 01:56:20;;;;;;;5.97;5.47;;;20.50;99.90;;;;;;5093193;28;20218;-64
2021/06/18 01:58:53;;;;;;;7.28;6.68;;;20.50;99.90;;;;;;5093161;28;20200;-64
2021/06/18 02:01:22;;;;;;;6.63;6.13;;;20.50;99.90;;;;;;5092652;28;20184;-64
2021/06/18 02:03:52;;;;;;;6.20;5.70;;;20.40;99.90;;;;;;5093173;28;20303;-63
2021/06/18 02:06:22;;;;;;;6.65;5.75;;;20.40;99.90;;;;;;5092861;28;20200;-64
2021/06/18 02:08:56;;;;;;;6.13;5.63;;;20.30;99.90;;;;;;5092948;28;20200;-63
2021/06/18 02:11:26;;;;;;;6.22;5.72;;;20.40;99.90;;;;;;5093188;28;20180;-63
2021/06/18 02:13:56;;;;;;;6.35;5.82;;;20.40;99.90;;;;;;5092978;28;20206;-63
2021/06/18 02:16:27;;;;;;;6.95;6.13;;;20.40;99.90;;;;;;5092420;28;20204;-64
2021/06/18 02:18:56;;;;;;;6.50;6.00;;;20.30;99.90;;;;;;5092633;28;20659;-64
2021/06/18 02:21:25;;;;;;;6.13;5.63;;;20.30;99.90;;;;;;5092729;28;20565;-63
2021/06/18 02:23:54;;;;;;;6.75;6.15;;;20.30;99.90;;;;;;5092493;28;20200;-64
2021/06/18 02:26:25;;;;;;;7.53;6.50;;;20.30;99.90;;;;;;5092358;28;20299;-63
2021/06/18 02:28:54;;;;;;;6.47;5.88;;;20.30;99.90;;;;;;5092511;28;20726;-64
2021/06/18 02:31:24;;;;;;;6.25;5.70;;;20.20;99.90;;;;;;5092336;28;20531;-64
2021/06/18 02:33:53;;;;;;;6.53;5.93;;;20.20;99.90;;;;;;5092769;28;20206;-63
2021/06/18 02:36:22;;;;;;;6.13;5.53;;;20.20;99.90;;;;;;5092967;28;20234;-63
2021/06/18 02:38:50;;;;;;;6.18;5.50;;;20.20;99.90;;;;;;5092301;28;20625;-64
2021/06/18 02:41:19;;;;;;;6.18;5.68;;;20.20;99.90;;;;;;5092665;28;20311;-63
2021/06/18 02:43:47;;;;;;;6.85;5.93;;;20.20;99.90;;;;;;5089674;28;20200;-64
2021/06/18 02:46:23;;;;;;;6.85;6.10;;;20.20;99.90;;;;;;5072001;28;20515;-64
2021/06/18 02:48:56;;;;;;;6.47;5.75;;;20.20;99.90;;;;;;5072482;28;20522;-63
2021/06/18 02:51:31;;;;;;;6.30;5.70;;;20.20;99.90;;;;;;5072166;28;20185;-63
2021/06/18 02:54:04;;;;;;;6.65;6.10;;;20.20;99.90;;;;;;5071972;28;20195;-64
2021/06/18 02:56:40;;;;;;;6.15;5.65;;;20.20;99.90;;;;;;5072215;28;20295;-63
2021/06/18 02:59:13;;;;;;;6.18;5.68;;;20.10;99.90;;;;;;5071791;28;20552;-63
2021/06/18 03:01:43;;;;;;;6.07;5.57;;;20.10;99.90;;;;;;5072123;28;20181;-63
2021/06/18 03:04:17;;;;;;;6.47;5.97;;;20.10;99.90;;;;;;5072168;28;20188;-65
2021/06/18 03:06:50;;;;;;;6.70;6.20;;;20.10;99.90;;;;;;5072329;28;20184;-65
2021/06/18 03:09:22;;;;;;;7.35;6.07;;;20.00;99.90;;;;;;5072222;28;20187;-64
2021/06/18 03:11:50;;;;;;;7.18;6.32;;;20.00;99.90;;;;;;5072252;28;20269;-64
2021/06/18 03:14:20;;;;;;;6.60;6.10;;;20.00;99.90;;;;;;5073753;28;20211;-64
2021/06/18 03:16:57;;;;;;;7.22;5.82;;;20.00;99.90;;;;;;5076014;28;20576;-66
2021/06/18 03:19:27;;;;;;;7.75;6.60;;;20.00;99.90;;;;;;5076100;28;20234;-65
2021/06/18 03:21:56;;;;;;;6.65;6.05;;;20.00;99.90;;;;;;5076048;28;20628;-65
2021/06/18 03:24:26;;;;;;;6.63;6.03;;;20.00;99.90;;;;;;5075886;28;20201;-64
2021/06/18 03:26:54;;;;;;;6.10;5.60;;;20.10;99.90;;;;;;5076057;28;20214;-64
2021/06/18 03:29:23;;;;;;;6.50;5.90;;;20.10;99.90;;;;;;5075426;28;20232;-64
2021/06/18 03:31:55;;;;;;;6.97;5.80;;;20.10;99.90;;;;;;5075432;28;20201;-65
2021/06/18 03:34:23;;;;;;;6.68;5.70;;;20.10;99.90;;;;;;5075889;28;20543;-63
2021/06/18 03:36:52;;;;;;;6.30;5.80;;;20.10;99.90;;;;;;5075470;28;20220;-63
2021/06/18 03:39:21;;;;;;;6.57;6.00;;;20.20;99.90;;;;;;5075372;28;20205;-65
2021/06/18 03:41:50;;;;;;;6.60;5.85;;;20.20;99.90;;;;;;5075329;28;20443;-64
2021/06/18 03:44:19;;;;;;;6.93;6.07;;;20.30;99.90;;;;;;5082839;28;20222;-63
2021/06/18 03:46:48;;;;;;;6.53;5.95;;;20.40;99.90;;;;;;5095628;28;20196;-63
2021/06/18 03:49:19;;;;;;;6.80;6.10;;;20.40;99.90;;;;;;5095701;28;20204;-64
2021/06/18 03:51:47;;;;;;;8.68;6.45;;;20.40;99.90;;;;;;5095742;28;20188;-64
2021/06/18 03:54:14;;;;;;;7.57;6.88;;;20.50;99.90;;;;;;5095622;28;20211;-63
2021/06/18 03:56:47;;;;;;;8.35;6.47;;;20.50;99.90;;;;;;5095530;28;20220;-63
2021/06/18 03:59:16;;;;;;;7.28;6.57;;;20.50;99.90;;;;;;5095538;28;20188;-63
2021/06/18 04:01:46;;;;;;;9.30;6.43;;;20.50;99.90;;;;;;5095502;28;20224;-63
2021/06/18 04:04:14;;;;;;;6.65;5.95;;;20.50;99.90;;;;;;5095519;28;20648;-64
2021/06/18 04:06:43;;;;;;;7.00;6.38;;;20.50;99.90;;;;;;5095351;28;20321;-64
2021/06/18 04:09:12;;;;;;;7.00;6.40;;;20.50;99.90;;;;;;5094897;28;20185;-64
2021/06/18 04:11:41;;;;;;;7.13;6.25;;;20.60;99.90;;;;;;5095431;28;20204;-64
2021/06/18 04:14:11;;;;;;;6.90;6.30;;;20.60;99.90;;;;;;5095411;28;20200;-63
2021/06/18 04:16:39;;;;;;;8.02;6.47;;;20.70;99.90;;;;;;5095017;28;20247;-63
2021/06/18 04:19:08;;;;;;;7.25;6.55;;;20.80;99.90;;;;;;5095241;28;20200;-64
2021/06/18 04:21:40;;;;;;;8.02;6.93;;;20.90;99.90;;;;;;5094780;28;20308;-64
2021/06/18 04:24:11;;;;;;;6.38;5.80;;;21.00;99.90;;;;;;5094935;28;20287;-64
2021/06/18 04:26:39;;;;;;;6.43;5.93;;;21.10;99.90;;;;;;5094958;28;20181;-65
2021/06/18 04:29:07;;;;;;;7.63;6.60;;;21.20;99.90;;;;;;5094603;28;20315;-64
2021/06/18 04:31:36;;;;;;;6.50;5.90;;;21.20;99.90;;;;;;5094585;28;20207;-64
2021/06/18 04:34:06;;;;;;;7.45;6.05;;;21.20;99.90;;;;;;5094706;28;20204;-63
2021/06/18 04:36:34;;;;;;;6.60;6.00;;;21.20;99.90;;;;;;5094920;28;20205;-63
2021/06/18 04:39:03;;;;;;;11.20;6.53;;;21.40;99.90;;;;;;5094756;28;20200;-63
2021/06/18 04:41:32;;;;;;;6.90;6.00;;;21.60;99.90;;;;;;5094780;28;20204;-63
2021/06/18 04:44:00;;;;;;;7.78;6.57;;;21.60;99.90;;;;;;5089575;28;20201;-63
2021/06/18 04:46:28;;;;;;;6.93;6.22;;;21.70;99.90;;;;;;5074081;28;20211;-64
2021/06/18 04:48:56;;;;;;;6.97;6.32;;;21.80;99.90;;;;;;5074013;28;20604;-63
2021/06/18 04:51:24;;;;;;;6.47;5.60;;;22.00;99.90;;;;;;5074391;28;20196;-64
2021/06/18 04:53:54;;;;;;;6.38;5.78;;;22.90;99.90;;;;;;5074170;28;20296;-64
2021/06/18 04:56:22;;;;;;;8.38;5.43;;;;;;;;;;5073995;28;20221;-64
2021/06/18 04:58:52;;;;;;;5.95;5.40;;;;;;;;;;5073961;28;20292;-65
2021/06/18 05:01:20;;;;;;;7.35;4.70;;;;;;;;;;5074175;28;20291;-64
2021/06/18 05:03:48;;;;;;;4.72;4.32;;;;;;;;;;5073928;28;20192;-64
2021/06/18 05:06:18;;;;;;;6.47;4.82;;;;;;;;;;5073613;28;20196;-64
2021/06/18 05:08:46;;;;;;;5.45;4.45;;;33.20;99.90;;;;;;5073213;28;20185;-64
2021/06/18 05:11:14;;;;;;;6.47;4.13;;;33.70;99.90;;;;;;5073793;28;20193;-65
2021/06/18 05:13:42;;;;;;;4.63;4.22;;;34.40;99.20;;;;;;5073336;28;20683;-64
2021/06/18 05:16:11;;;;;;;4.40;4.00;;;35.00;97.20;;;;;;5073333;28;20211;-64
2021/06/18 05:18:39;;;;;;;4.00;3.70;;;35.40;95.30;;;;;;5073706;28;20326;-66
2021/06/18 05:21:06;;;;;;;4.47;4.00;;;35.60;94.60;;;;;;5073834;28;20200;-65
2021/06/18 05:23:34;;;;;;;4.90;4.43;;;36.10;93.00;;;;;;5073542;28;20189;-65
2021/06/18 05:26:02;;;;;;;4.47;4.00;;;36.10;92.30;;;;;;5073654;28;20205;-64
2021/06/18 05:28:31;;;;;;;4.63;3.90;;;;;;;;;;5073156;28;20233;-65
2021/06/18 05:31:00;;;;;;;5.03;3.90;;;;;;;;;;5073536;28;20208;-64
2021/06/18 05:33:30;;;;;;;4.68;3.97;;;;;;;;;;5073326;28;20208;-64
2021/06/18 05:35:58;;;;;;;4.70;4.30;;;;;;;;;;5073314;28;20204;-65
2021/06/18 05:38:26;;;;;;;6.32;4.40;;;;;;;;;;5073049;28;20573;-65
2021/06/18 05:40:54;;;;;;;4.47;4.07;;;34.90;99.90;;;;;;5073136;28;20204;-65
2021/06/18 05:43:22;;;;;;;6.72;4.50;;;33.90;92.70;;;;;;5072734;28;20677;-62
2021/06/18 05:45:50;;;;;;;5.55;4.43;;;33.10;93.60;;;;;;5093229;28;20200;-63
2021/06/18 05:48:18;;;;;;;8.90;5.28;;;32.10;95.00;;;;;;5093417;28;20672;-62
2021/06/18 05:50:47;;;;;;;6.40;5.25;;;31.30;95.60;;;;;;5079411;28;20844;-62
2021/06/18 05:53:15;;;;;;;5.70;4.88;;;30.40;96.70;;;;;;5072287;28;20684;-62
2021/06/18 05:55:44;;;;;;;5.93;4.97;;;29.60;98.60;;;;;;5072790;28;20196;-62
2021/06/18 05:58:12;;;;;;;5.60;5.10;;;28.90;99.80;;;;;;5072767;28;20683;-63
2021/06/18 06:00:41;;;;;;;10.13;5.30;;;28.40;99.90;;;;;;5072227;28;20199;-63
2021/06/18 06:03:11;;;;;;;7.95;5.78;;;27.90;99.90;;;;;;5072431;28;20652;-62
2021/06/18 06:05:39;;;;;;;5.93;5.35;;;27.80;99.90;;;;;;5071865;28;20215;-63
2021/06/18 06:08:11;;;;;;;7.00;5.50;;;27.50;99.90;;;;;;5072585;28;20299;-63
2021/06/18 06:10:46;;;;;;;10.55;5.82;;;27.40;99.90;;;;;;5074912;28;20505;-63
2021/06/18 06:13:13;;;;;;;8.10;5.00;;;27.30;99.90;;;;;;5072323;28;20276;-62
2021/06/18 06:15:41;;;;;;;9.65;5.28;;;27.30;99.90;;;;;;5071799;28;20204;-62
2021/06/18 06:18:09;;;;;;;7.30;5.07;;;27.20;99.90;;;;;;5072098;28;20598;-63
2021/06/18 06:20:41;;;;;;;11.88;5.70;;;27.30;99.90;;;;;;5071976;28;20732;-62
2021/06/18 06:23:10;;;;;;;6.30;5.70;;;27.30;99.90;;;;;;5072138;28;20262;-63
2021/06/18 06:25:39;;;;;;;6.57;5.00;;;27.30;99.90;;;;;;5072250;28;20193;-63
2021/06/18 06:28:07;;;;;;;6.45;5.28;;;27.40;99.90;;;;;;5071648;28;20225;-63
2021/06/18 06:30:36;;;;;;;8.43;5.15;;;27.50;99.90;;;;;;5072062;28;20207;-63
2021/06/18 06:33:04;;;;;;;9.02;5.68;;;27.40;99.90;;;;;;5071915;28;20233;-63
2021/06/18 06:35:33;;;;;;;6.28;4.97;;;27.50;99.90;;;;;;5072047;28;20627;-63
2021/06/18 06:38:01;;;;;;;5.55;5.00;;;27.50;99.90;;;;;;5071463;28;20224;-62
2021/06/18 06:40:30;;;;;;;7.32;5.28;;;27.60;99.90;;;;;;5071933;28;20211;-63
2021/06/18 06:42:58;;;;;;;6.70;5.28;;;27.60;99.90;;;;;;5071614;28;20205;-63
2021/06/18 06:45:26;;;;;;;5.78;5.10;;;27.70;99.90;;;;;;5088679;28;20579;-62
2021/06/18 06:47:54;;;;;;;9.68;5.28;;;27.60;99.90;;;;;;5091620;28;20774;-62
2021/06/18 06:50:22;;;;;;;5.63;5.13;;;27.60;99.90;;;;;;5092000;28;20204;-64
2021/06/18 06:52:49;;;;;;;6.68;5.38;;;27.60;99.90;;;;;;5091903;28;20200;-63
2021/06/18 06:55:17;;;;;;;6.15;5.55;;;27.60;99.90;;;;;;5092000;28;20200;-63
2021/06/18 06:57:46;;;;;;;6.15;5.45;;;27.70;99.90;;;;;;5091898;28;20277;-63
2021/06/18 07:00:15;;;;;;;7.25;6.50;;;27.80;99.90;;;;;;5091951;28;20200;-63
2021/06/18 07:02:44;;;;;;;5.50;4.97;;;27.80;99.90;;;;;;5091300;28;20204;-63
2021/06/18 07:05:13;;;;;;;6.80;5.40;;;27.70;99.90;;;;;;5091862;28;20211;-63
2021/06/18 07:07:41;;;;;;;5.28;4.78;;;27.70;99.90;;;;;;5091910;28;20239;-62
2021/06/18 07:10:10;;;;;;;7.53;4.85;;;27.80;99.90;;;;;;5092088;28;20295;-63
2021/06/18 07:12:38;;;;;;;5.35;4.82;;;27.90;99.90;;;;;;5092322;28;20204;-62
2021/06/18 07:15:09;;;;;;;6.90;5.20;;;28.00;99.90;;;;;;5092196;28;20211;-62
2021/06/18 07:17:36;;;;;;;6.47;5.28;;;28.10;99.90;;;;;;5092374;28;20204;-63
2021/06/18 07:20:05;;;;;;;7.10;5.32;;;28.20;99.90;;;;;;5092189;28;20202;-63
2021/06/18 07:22:33;;;;;;;6.03;5.15;;;28.30;99.90;;;;;;5091932;28;20531;-63
2021/06/18 07:25:01;;;;;;;5.90;5.22;;;28.30;99.90;;;;;;5091831;28;20215;-63
2021/06/18 07:27:35;;;;;;;5.10;4.70;;;28.40;99.90;;;;;;5091947;28;20707;-63
2021/06/18 07:30:04;;;;;;;8.35;5.25;;;28.40;99.90;;;;;;5092449;28;20575;-62
2021/06/18 07:32:35;;;;;;;5.93;5.05;;;28.30;99.90;;;;;;5091864;28;20654;-62
2021/06/18 07:35:03;;;;;;;6.68;4.90;;;28.30;99.90;;;;;;5092197;28;20206;-64
2021/06/18 07:37:31;;;;;;;5.68;4.28;;;28.30;99.90;;;;;;5061147;28;20241;-63
2021/06/18 07:39:59;;;;;;;6.70;4.60;;;28.30;99.90;;;;;;5060829;28;20205;-60
2021/06/18 07:42:38;;;;;;;4.90;4.20;;;28.30;99.90;;;;;;5088881;28;20196;-61
2021/06/18 07:45:07;;;;;;;5.53;5.00;;;28.40;99.90;;;;;;5074977;28;20205;-61
2021/06/18 07:47:38;;;;;;;5.25;4.85;;;28.40;99.90;;;;;;5068673;28;20211;-61
2021/06/18 07:50:08;;;;;;;5.47;4.68;;;28.40;99.90;;;;;;5068681;28;20208;-60
2021/06/18 07:52:36;;;;;;;4.75;4.35;;;28.50;99.90;;;;;;5069016;28;20215;-61
2021/06/18 07:55:06;;;;;;;6.88;4.80;;;28.50;99.90;;;;;;5068568;28;20288;-59
2021/06/18 07:57:34;;;;;;;5.70;5.20;;;28.50;99.90;;;;;;5068535;28;20660;-65
2021/06/18 08:00:02;;;;;;;4.78;4.38;;;28.50;99.90;;;;;;5069442;28;20201;-67
2021/06/18 08:02:30;;;;;;;6.70;4.75;;;28.50;99.90;;;;;;5072375;28;20224;-65
2021/06/18 08:04:59;;;;;;;5.60;5.10;;;28.50;99.90;;;;;;5071949;28;20227;-65
2021/06/18 08:07:27;;;;;;;6.20;4.85;;;28.50;99.90;;;;;;5072148;28;20204;-63
2021/06/18 08:09:56;;;;;;;9.55;5.40;;;28.40;99.90;;;;;;5073577;28;20248;-64
2021/06/18 08:12:24;;;;;;;5.95;4.53;;;28.30;99.90;;;;;;5074739;28;20209;-63
2021/06/18 08:14:52;;;;;;;8.13;4.82;;;28.40;99.90;;;;;;5074348;28;20207;-63
2021/06/18 08:17:20;;;;;;;7.07;4.95;;;28.40;99.90;;;;;;5074066;28;20200;-63
2021/06/18 08:19:48;;;;;;;5.32;4.93;;;28.60;99.90;;;;;;5073884;28;20315;-63
2021/06/18 08:22:17;;;;;;;7.85;4.80;;;28.60;99.90;;;;;;5074343;28;20239;-63
2021/06/18 08:24:45;;;;;;;5.40;4.90;;;28.70;99.90;;;;;;5074034;28;20683;-62
2021/06/18 08:27:13;;;;;;;4.95;4.47;;;28.70;99.90;;;;;;5074009;28;20209;-64
2021/06/18 08:29:41;;;;;;;5.78;5.15;;;28.80;99.90;;;;;;5074423;28;20185;-64
2021/06/18 08:32:09;;;;;;;5.30;4.90;;;28.80;99.90;;;;;;5073760;28;20691;-63
2021/06/18 08:34:37;;;;;;;7.13;5.30;;;28.80;99.90;;;;;;5073970;28;20294;-63
2021/06/18 08:37:06;;;;;;;6.10;5.43;;;28.90;99.90;;;;;;5073907;28;20197;-63
2021/06/18 08:39:36;;;;;;;5.82;5.22;;;28.90;99.90;;;;;;5073841;28;20233;-63
2021/06/18 08:42:05;;;;;;;6.03;5.53;;;28.80;99.90;;;;;;5073769;28;20284;-63
2021/06/18 08:44:32;;;;;;;5.90;5.40;;;28.70;99.90;;;;;;5082545;28;20660;-63
2021/06/18 08:47:00;;;;;;;6.07;5.47;;;28.70;99.90;;;;;;5093680;28;20695;-62
2021/06/18 08:49:28;;;;;;;7.07;6.22;;;28.60;99.90;;;;;;5094162;28;20550;-63
2021/06/18 08:51:56;;;;;;;6.22;5.68;;;28.70;99.90;;;;;;5093569;28;20336;-64
2021/06/18 08:54:41;;;;;;;8.98;6.47;;;28.80;99.90;;;;;;5093359;28;20203;-63
2021/06/18 08:57:12;;;;;;;6.18;5.63;;;28.80;99.90;;;;;;5093960;28;20242;-62
2021/06/18 08:59:41;;;;;;;6.65;5.97;;;28.80;99.90;;;;;;5093927;28;20227;-63
2021/06/18 09:02:10;;;;;;;5.70;5.20;;;28.80;99.90;;;;;;5093309;28;20196;-62
2021/06/18 09:05:08;;;;;;;6.32;5.28;;;28.80;99.90;;;;;;5093248;28;20210;-62
2021/06/18 09:07:53;;;;;;;6.13;5.53;;;28.80;99.90;;;;;;5089003;28;20204;-63
2021/06/18 09:10:29;;;;;;;6.47;5.85;;;28.90;99.90;;;;;;5093952;28;20211;-64
2021/06/18 09:13:16;;;;;;;6.68;5.85;;;28.90;99.90;;;;;;5092442;28;20180;-64
2021/06/18 09:15:50;;;;;;;5.65;5.25;;;29.00;99.90;;;;;;5093472;28;20184;-62
2021/06/18 09:18:22;;;;;;;5.93;5.38;;;29.00;99.90;;;;;;5092945;28;20194;-62
2021/06/18 09:20:50;;;;;;;8.27;5.57;;;29.00;99.90;;;;;;5093266;28;20694;-62
2021/06/18 09:23:22;;;;;;;8.13;5.60;;;29.10;99.90;;;;;;5093320;28;20559;-63
2021/06/18 09:25:50;;;;;;;6.28;5.68;;;29.10;99.90;;;;;;5093412;28;20334;-64
2021/06/18 09:28:19;;;;;;;6.03;5.28;;;29.10;99.90;;;;;;5092988;28;20232;-62
2021/06/18 09:31:05;;;;;;;6.30;5.80;;;29.20;99.90;;;;;;5092993;28;20184;-63
2021/06/18 09:33:43;;;;;;;8.55;5.78;;;29.30;99.90;;;;;;5092922;28;20180;-62
2021/06/18 09:36:11;;;;;;;6.63;5.80;;;29.40;99.90;;;;;;5092998;28;20704;-63
2021/06/18 09:38:40;;;;;;;6.13;5.53;;;29.40;99.90;;;;;;5093024;28;20206;-62
2021/06/18 09:41:39;;;;;;;5.93;5.38;;;29.30;99.90;;;;;;5092721;28;20690;-62
2021/06/18 09:44:10;;;;;;;5.72;5.30;;;29.40;99.90;;;;;;5086948;28;20532;-64
2021/06/18 09:46:43;;;;;;;6.88;5.47;;;29.40;99.90;;;;;;5072659;28;20292;-62
2021/06/18 09:49:16;;;;;;;5.78;5.25;;;29.40;99.90;;;;;;5072847;28;20193;-63
2021/06/18 09:51:57;;;;;;;7.05;5.50;;;29.50;99.90;;;;;;5073066;28;20283;-63
2021/06/18 09:54:31;;;;;;;5.55;5.00;;;29.50;99.90;;;;;;5072831;28;20574;-64
2021/06/18 09:57:11;;;;;;;9.80;5.72;;;29.50;99.90;;;;;;5073070;28;20190;-62
2021/06/18 09:59:52;;;;;;;5.97;5.38;;;29.60;99.90;;;;;;5072620;28;20572;-63
2021/06/18 10:02:21;;;;;;;6.00;5.38;;;29.70;99.90;;;;;;5073212;28;20235;-63
2021/06/18 10:04:51;;;;;;;5.57;5.07;;;29.80;99.90;;;;;;5072944;28;20193;-63
2021/06/18 10:07:27;;;;;;;5.63;5.10;;;29.80;99.90;;;;;;5073041;28;20232;-62
2021/06/18 10:10:00;;;;;;;7.00;5.35;;;29.80;99.90;;;;;;5073081;28;20569;-63
2021/06/18 10:12:29;;;;;;;5.40;4.95;;;29.90;99.90;;;;;;5073010;28;20197;-63
2021/06/18 10:15:05;;;;;;;5.90;4.70;;;29.90;99.90;;;;;;5072660;28;20262;-63
2021/06/18 10:17:33;;;;;;;5.97;5.05;;;30.00;99.90;;;;;;5072872;28;20628;-62
2021/06/18 10:35:43;;;;;;;4.43;4.10;;;30.30;99.90;;;;;;5052068;28;20717;-62
2021/06/18 10:38:14;;;;;;;6.68;4.45;;;30.20;99.20;;;;;;5051821;28;20188;-62
2021/06/18 10:40:46;;;;;;;4.95;4.55;;;30.20;99.90;;;;;;5051700;28;20320;-62
2021/06/18 10:43:15;;;;;;;4.60;4.20;;;30.30;99.90;;;;;;5051464;28;20660;-63
2021/06/18 10:46:05;;;;;;;5.50;4.22;;;30.30;99.90;;;;;;5070586;28;20203;-62
2021/06/18 10:48:59;;;;;;;5.00;4.60;;;30.30;99.90;;;;;;5072086;28;20185;-62
2021/06/18 10:51:39;;;;;;;4.68;4.30;;;30.20;99.90;;;;;;5071868;28;20196;-62
2021/06/18 10:54:11;;;;;;;5.00;4.57;;;30.20;99.90;;;;;;5071722;28;20196;-63
2021/06/18 10:56:55;;;;;;;4.85;4.22;;;30.40;98.40;;;;;;5071646;28;20185;-62
2021/06/18 10:59:35;;;;;;;4.75;4.25;;;30.50;98.20;;;;;;5071779;28;20215;-62
2021/06/18 11:02:19;;;;;;;4.30;4.00;;;30.60;97.40;;;;;;5071689;28;20184;-63
2021/06/18 11:04:51;;;;;;;3.67;3.38;;;30.70;96.50;;;;;;5070502;28;20234;-63
2021/06/18 11:26:01;;;;;;;4.45;4.05;;;30.80;96.40;;;;;;5070889;28;20207;-63
2021/06/18 11:28:50;;;;;;;7.22;6.60;;;30.80;96.80;;;;;;5071290;28;20184;-62
2021/06/18 11:31:34;;;;;;;4.30;3.97;;;30.90;95.90;;;;;;5071444;28;20188;-63
2021/06/18 11:34:03;;;;;;;4.18;3.70;;;30.90;95.50;;;;;;5081764;28;20228;-63
2021/06/18 11:36:52;;;;;;;5.72;5.30;;;30.90;95.10;;;;;;5094904;28;20207;-63
2021/06/18 11:39:28;;;;;;;5.60;4.90;;;31.00;95.20;;;;;;5095026;28;20188;-63
2021/06/18 11:42:04;;;;;;;5.05;4.53;;;31.10;95.90;;;;;;5095401;28;20210;-63
2021/06/18 11:48:14;;;;;;;5.13;4.10;;;31.20;94.40;;;;;;5074617;28;20180;-63
2021/06/18 11:50:43;;;;;;;4.28;3.88;;;31.20;94.30;;;;;;5074505;28;20597;-62
2021/06/18 11:53:11;;;;;;;4.10;3.80;;;31.10;93.90;;;;;;5075028;28;20232;-62
2021/06/18 11:55:39;;;;;;;4.55;4.20;;;31.00;94.20;;;;;;5074711;28;20308;-63
2021/06/18 11:58:28;;;;;;;4.60;4.20;;;31.10;94.80;;;;;;5074296;28;20303;-62
2021/06/18 12:00:56;;;;;;;4.90;4.15;;;31.00;94.50;;;;;;5074407;28;20226;-63
2021/06/18 12:03:30;;;;;;;4.25;3.88;;;31.00;95.20;;;;;;5074470;28;20247;-64
2021/06/18 12:05:59;;;;;;;4.45;4.10;;;31.00;95.00;;;;;;5074617;28;20215;-64
2021/06/18 12:08:27;;;;;;;5.43;4.15;;;31.00;94.30;;;;;;5074108;28;20593;-63
2021/06/18 12:10:55;;;;;;;4.40;4.00;;;31.00;94.40;;;;;;5074451;28;20193;-63
2021/06/18 12:13:24;;;;;;;4.53;4.18;;;31.10;95.00;;;;;;5074125;28;20607;-63
2021/06/18 12:16:07;;;;;;;4.90;4.47;;;31.20;94.60;;;;;;5074668;28;20201;-63
2021/06/18 12:18:35;;;;;;;4.90;4.50;;;31.30;94.80;;;;;;5074328;28;20191;-63
2021/06/18 12:21:05;;;;;;;11.65;10.55;;;31.40;94.70;;;;;;5074288;28;20224;-64
2021/06/18 12:23:33;;;;;;;5.15;4.68;;;31.40;94.70;;;;;;5074086;28;20207;-64
2021/06/18 12:26:00;;;;;;;5.80;4.53;;;31.50;94.40;;;;;;5074243;28;20208;-63
2021/06/18 12:28:30;;;;;;;4.25;3.95;;;31.50;94.20;;;;;;5074245;28;20197;-63
2021/06/18 12:30:58;;;;;;;4.40;4.00;;;31.50;94.30;;;;;;5074239;28;20197;-64
2021/06/18 12:33:26;;;;;;;4.60;4.30;;;31.50;94.20;;;;;;5073772;28;20617;-63
2021/06/18 12:35:54;;;;;;;4.35;3.92;;;31.30;94.00;;;;;;5074189;28;20196;-63
2021/06/18 12:38:22;;;;;;;5.25;4.35;;;31.30;94.30;;;;;;5073940;28;20283;-64
2021/06/18 12:40:50;;;;;;;4.75;4.28;;;31.30;94.50;;;;;;5073920;28;20311;-63
2021/06/18 12:43:18;;;;;;;5.00;4.50;;;31.30;94.50;;;;;;5073495;28;20310;-63
2021/06/18 12:45:50;;;;;;;4.70;4.40;;;31.40;94.40;;;;;;5093379;28;20204;-63
2021/06/18 12:48:21;;;;;;;4.32;4.03;;;31.30;94.00;;;;;;5093728;28;20220;-63
2021/06/18 12:50:50;;;;;;;5.13;4.47;;;31.30;94.00;;;;;;5094129;28;20279;-62
2021/06/18 12:53:29;;;;;;;5.22;4.72;;;31.30;94.80;;;;;;5093827;28;20232;-63
2021/06/18 12:55:56;;;;;;;5.07;4.57;;;31.30;95.00;;;;;;5094071;28;20184;-63
2021/06/18 12:58:26;;;;;;;4.78;4.45;;;31.40;94.50;;;;;;5093792;28;20288;-62
2021/06/18 13:01:00;;;;;;;4.90;4.40;;;31.40;94.50;;;;;;5093231;28;20683;-62
2021/06/18 13:03:49;;;;;;;4.80;4.40;;;31.30;94.20;;;;;;5093957;28;20196;-63
2021/06/18 13:06:18;;;;;;;4.60;4.20;;;31.40;95.40;;;;;;5094092;28;20208;-62
2021/06/18 13:08:49;;;;;;;4.68;4.30;;;31.50;95.50;;;;;;5075133;28;20201;-60
2021/06/18 13:11:22;;;;;;;4.82;4.45;;;31.50;95.40;;;;;;5089410;28;20671;-60
2021/06/18 13:14:05;;;;;;;5.25;4.75;;;31.50;95.00;;;;;;5091238;28;20257;-60
2021/06/18 13:16:35;;;;;;;5.00;4.60;;;31.50;95.20;;;;;;5091657;28;20180;-60
2021/06/18 13:19:03;;;;;;;4.80;4.50;;;31.50;95.30;;;;;;5090978;28;20552;-63
2021/06/18 13:21:47;;;;;;;4.75;4.35;;;31.60;95.30;;;;;;5091219;28;20216;-61
2021/06/18 13:24:16;;;;;;;4.65;4.25;;;31.60;94.80;;;;;;5090758;28;20805;-61
2021/06/18 13:26:45;;;;;;;4.70;4.30;;;31.60;95.00;;;;;;5090916;28;20235;-61
2021/06/18 13:29:15;;;;;;;4.75;4.38;;;31.60;95.30;;;;;;5090565;28;20570;-63
2021/06/18 13:31:45;;;;;;;4.95;4.20;;;31.70;94.50;;;;;;5090699;28;20188;-63
2021/06/18 13:34:15;;;;;;;4.75;4.35;;;31.70;94.60;;;;;;5090598;28;20266;-63
2021/06/18 13:36:44;;;;;;;4.97;4.43;;;31.60;95.20;;;;;;5090598;28;20746;-61
2021/06/18 13:39:32;;;;;;;4.53;4.13;;;31.60;94.60;;;;;;5090810;28;20220;-60
2021/06/18 13:42:00;;;;;;;4.85;4.45;;;31.60;94.20;;;;;;5090620;28;20314;-61
2021/06/18 13:44:28;;;;;;;4.88;4.32;;;31.60;94.00;;;;;;5081626;28;20311;-61
2021/06/18 13:46:58;;;;;;;4.88;4.38;;;31.70;94.20;;;;;;5070117;28;20236;-60